createdAt,value
2023-04-15T00:00:00.942Z,99.99
2023-04-15T00:01:00.935Z,99.99
2023-04-15T00:02:01.012Z,99.99
2023-04-15T00:03:01.029Z,99.99
2023-04-15T00:04:00.987Z,99.99
2023-04-15T00:05:00.910Z,99.99
2023-04-15T00:06:00.877Z,99.99
2023-04-15T00:07:00.856Z,99.99
2023-04-15T00:08:00.870Z,99.99
2023-04-15T00:09:01.297Z,99.99
2023-04-15T00:10:00.842Z,99.99
2023-04-15T00:11:00.819Z,99.99
2023-04-15T00:12:00.812Z,99.99
2023-04-15T00:13:00.806Z,99.99
2023-04-15T00:14:00.826Z,99.99
2023-04-15T00:15:00.780Z,99.99
2023-04-15T00:16:00.777Z,99.99
2023-04-15T00:17:00.812Z,99.99
2023-04-15T00:18:00.788Z,99.99
2023-04-15T00:19:00.993Z,99.99
2023-04-15T00:20:00.742Z,99.99
2023-04-15T00:21:00.720Z,99.99
2023-04-15T00:22:00.715Z,99.99
2023-04-15T00:23:00.708Z,99.99
2023-04-15T00:24:00.706Z,99.99
2023-04-15T00:25:00.673Z,99.99
2023-04-15T00:26:00.679Z,99.99
2023-04-15T00:27:00.667Z,99.99
2023-04-15T00:28:00.661Z,99.99
2023-04-15T00:29:00.864Z,99.99
2023-04-15T00:30:00.623Z,99.99
2023-04-15T00:31:00.648Z,99.99
2023-04-15T00:32:00.603Z,99.99
2023-04-15T00:33:00.649Z,99.99
2023-04-15T00:34:00.616Z,99.99
2023-04-15T00:35:00.575Z,99.99
2023-04-15T00:36:00.565Z,99.99
2023-04-15T00:37:00.549Z,99.99
2023-04-15T00:38:00.581Z,99.99
2023-04-15T00:39:00.826Z,99.99
2023-04-15T00:40:00.535Z,99.99
2023-04-15T00:41:00.530Z,99.99
2023-04-15T00:42:00.516Z,99.99
2023-04-15T00:43:00.526Z,99.99
2023-04-15T00:44:00.568Z,99.99
2023-04-15T00:45:00.495Z,99.99
2023-04-15T00:46:00.547Z,99.99
2023-04-15T00:47:00.451Z,99.99
2023-04-15T00:48:00.537Z,99.99
2023-04-15T00:49:00.743Z,99.99
2023-04-15T00:50:00.474Z,99.99
2023-04-15T00:51:00.411Z,99.99
2023-04-15T00:52:00.419Z,99.99
2023-04-15T00:53:00.384Z,99.99
2023-04-15T00:54:00.429Z,99.99
2023-04-15T00:55:00.368Z,99.99
2023-04-15T00:56:00.364Z,99.99
2023-04-15T00:57:00.356Z,99.99
2023-04-15T00:58:00.363Z,99.99
2023-04-15T00:59:00.516Z,99.99
2023-04-15T01:00:00.311Z,99.99
2023-04-15T01:01:00.302Z,99.99
2023-04-15T01:02:00.432Z,99.99
2023-04-15T01:03:00.513Z,99.99
2023-04-15T01:04:00.489Z,99.99
2023-04-15T01:05:00.682Z,99.99
2023-04-15T01:06:01.532Z,99.99
2023-04-15T01:07:00.241Z,99.99
2023-04-15T01:08:00.230Z,99.99
2023-04-15T01:09:00.530Z,99.99
2023-04-15T01:10:00.253Z,99.99
2023-04-15T01:11:00.207Z,99.99
2023-04-15T01:12:00.194Z,99.99
2023-04-15T01:13:00.221Z,99.99
2023-04-15T01:14:00.157Z,99.99
2023-04-15T01:15:00.243Z,99.99
2023-04-15T01:16:00.231Z,99.99
2023-04-15T01:17:00.187Z,99.99
2023-04-15T01:18:00.390Z,99.99
2023-04-15T01:19:00.447Z,99.99
2023-04-15T01:20:00.132Z,99.99
2023-04-15T01:21:00.100Z,99.99
2023-04-15T01:22:00.115Z,99.99
2023-04-15T01:23:00.097Z,99.99
2023-04-15T01:24:00.084Z,99.99
2023-04-15T01:25:00.049Z,99.99
2023-04-15T01:26:00.055Z,99.99
2023-04-15T01:27:00.030Z,99.99
2023-04-15T01:28:00.050Z,99.99
2023-04-15T01:29:00.214Z,99.95
2023-04-15T01:30:00.045Z,99.99
2023-04-15T01:30:59.976Z,99.99
2023-04-15T01:31:59.993Z,99.99
2023-04-15T01:33:00.021Z,99.99
2023-04-15T01:33:59.972Z,99.99
2023-04-15T01:34:59.954Z,99.99
2023-04-15T01:35:59.929Z,99.99
2023-04-15T01:36:59.921Z,99.99
2023-04-15T01:37:59.954Z,99.99
2023-04-15T01:39:00.154Z,99.99
2023-04-15T01:39:59.894Z,99.99
2023-04-15T01:40:59.879Z,99.99
2023-04-15T01:41:59.890Z,99.99
2023-04-15T01:42:59.888Z,99.99
2023-04-15T01:43:59.857Z,99.99
2023-04-15T01:44:59.842Z,99.99
2023-04-15T01:45:59.821Z,99.99
2023-04-15T01:46:59.926Z,99.99
2023-04-15T01:47:59.906Z,99.99
2023-04-15T01:48:59.941Z,99.99
2023-04-15T01:49:59.804Z,99.99
2023-04-15T01:50:59.778Z,99.99
2023-04-15T01:51:59.767Z,99.99
2023-04-15T01:52:59.796Z,99.99
2023-04-15T01:53:59.746Z,99.99
2023-04-15T01:54:59.731Z,99.99
2023-04-15T01:55:59.734Z,99.99
2023-04-15T01:56:59.703Z,99.99
2023-04-15T01:57:59.699Z,99.99
2023-04-15T01:58:59.984Z,99.99
2023-04-15T01:59:59.709Z,99.99
2023-04-15T02:00:59.720Z,99.99
2023-04-15T02:01:59.687Z,99.99
2023-04-15T02:02:59.770Z,99.99
2023-04-15T02:03:59.664Z,99.99
2023-04-15T02:04:59.672Z,99.99
2023-04-15T02:05:59.629Z,99.99
2023-04-15T02:06:59.621Z,99.99
2023-04-15T02:07:59.639Z,99.99
2023-04-15T02:08:59.902Z,99.99
2023-04-15T02:09:59.599Z,99.99
2023-04-15T02:10:59.561Z,99.99
2023-04-15T02:11:59.566Z,99.99
2023-04-15T02:12:59.580Z,99.99
2023-04-15T02:13:59.536Z,99.99
2023-04-15T02:14:59.535Z,99.99
2023-04-15T02:15:59.504Z,99.99
2023-04-15T02:16:59.612Z,99.99
2023-04-15T02:17:59.606Z,99.99
2023-04-15T02:18:59.698Z,99.99
2023-04-15T02:19:59.486Z,99.99
2023-04-15T02:20:59.448Z,99.99
2023-04-15T02:21:59.442Z,99.99
2023-04-15T02:22:59.440Z,99.99
2023-04-15T02:23:59.434Z,99.99
2023-04-15T02:24:59.419Z,99.99
2023-04-15T02:25:59.396Z,99.99
2023-04-15T02:26:59.390Z,99.99
2023-04-15T02:27:59.407Z,99.99
2023-04-15T02:28:59.580Z,99.99
2023-04-15T02:29:59.365Z,99.99
2023-04-15T02:30:59.392Z,99.99
2023-04-15T02:31:59.396Z,99.99
2023-04-15T02:32:59.427Z,99.99
2023-04-15T02:33:59.332Z,99.99
2023-04-15T02:34:59.328Z,99.99
2023-04-15T02:35:59.331Z,99.99
2023-04-15T02:36:59.289Z,99.99
2023-04-15T02:37:59.294Z,99.99
2023-04-15T02:38:59.452Z,99.99
2023-04-15T02:39:59.340Z,99.99
2023-04-15T02:40:59.254Z,99.99
2023-04-15T02:41:59.260Z,99.99
2023-04-15T02:42:59.252Z,99.99
2023-04-15T02:43:59.234Z,99.99
2023-04-15T02:44:59.223Z,99.99
2023-04-15T02:45:59.248Z,99.99
2023-04-15T02:46:59.177Z,99.99
2023-04-15T02:47:59.271Z,99.99
2023-04-15T02:48:59.538Z,99.95
2023-04-15T02:49:59.149Z,99.95
2023-04-15T02:50:59.137Z,99.95
2023-04-15T02:51:59.159Z,99.99
2023-04-15T02:52:59.119Z,99.99
2023-04-15T02:53:59.104Z,99.99
2023-04-15T02:54:59.098Z,99.99
2023-04-15T02:55:59.083Z,99.99
2023-04-15T02:56:59.133Z,99.99
2023-04-15T02:57:59.063Z,99.95
2023-04-15T02:58:59.140Z,99.95
2023-04-15T02:59:59.090Z,99.84
2023-04-15T03:00:59.076Z,99.84
2023-04-15T03:01:59.069Z,99.84
2023-04-15T03:02:59.170Z,99.74
2023-04-15T03:03:59.122Z,99.74
2023-04-15T03:04:59.010Z,99.84
2023-04-15T03:05:58.982Z,99.84
2023-04-15T03:06:59.038Z,99.95
2023-04-15T03:07:58.965Z,99.95
2023-04-15T03:08:59.114Z,99.95
2023-04-15T03:09:58.948Z,99.84
2023-04-15T03:10:58.949Z,99.74
2023-04-15T03:11:58.931Z,99.74
2023-04-15T03:12:58.908Z,99.63
2023-04-15T03:13:58.889Z,99.63
2023-04-15T03:14:58.875Z,99.63
2023-04-15T03:15:58.970Z,99.74
2023-04-15T03:16:58.886Z,99.74
2023-04-15T03:17:58.904Z,99.74
2023-04-15T03:18:58.913Z,99.54
2023-04-15T03:19:58.867Z,99.43
2023-04-15T03:20:58.825Z,99.33
2023-04-15T03:21:58.837Z,99.33
2023-04-15T03:22:58.857Z,99.43
2023-04-15T03:23:58.786Z,99.43
2023-04-15T03:24:58.837Z,99.43
2023-04-15T03:25:58.764Z,99.54
2023-04-15T03:26:58.778Z,99.54
2023-04-15T03:27:58.748Z,99.54
2023-04-15T03:28:58.917Z,99.43
2023-04-15T03:29:58.715Z,99.43
2023-04-15T03:30:58.805Z,99.43
2023-04-15T03:31:58.712Z,99.43
2023-04-15T03:32:58.727Z,99.54
2023-04-15T03:33:58.676Z,99.54
2023-04-15T03:34:58.686Z,99.54
2023-04-15T03:35:58.656Z,99.54
2023-04-15T03:36:58.640Z,99.54
2023-04-15T03:37:58.629Z,99.54
2023-04-15T03:38:58.827Z,99.54
2023-04-15T03:39:58.688Z,99.59
2023-04-15T03:40:58.623Z,99.74
2023-04-15T03:41:58.607Z,99.69
2023-04-15T03:42:58.603Z,99.69
2023-04-15T03:43:58.573Z,99.59
2023-04-15T03:44:58.570Z,99.49
2023-04-15T03:45:59.729Z,99.49
2023-04-15T03:46:58.586Z,99.38
2023-04-15T03:48:11.265Z,99.38
2023-04-15T03:48:58.504Z,99.49
2023-04-15T03:49:58.457Z,99.49
2023-04-15T03:50:58.441Z,99.38
2023-04-15T03:51:58.503Z,99.28
2023-04-15T03:52:58.497Z,99.28
2023-04-15T03:53:58.428Z,99.28
2023-04-15T03:54:58.426Z,99.18
2023-04-15T03:55:58.403Z,99.18
2023-04-15T03:56:58.382Z,99.18
2023-04-15T03:57:58.361Z,99.18
2023-04-15T03:58:58.704Z,99.18
2023-04-15T03:59:58.366Z,99.18
2023-04-15T04:00:58.338Z,99.28
2023-04-15T04:01:58.523Z,99.28
2023-04-15T04:02:58.595Z,99.38
2023-04-15T04:03:58.356Z,99.38
2023-04-15T04:04:58.317Z,99.38
2023-04-15T04:05:58.277Z,99.38
2023-04-15T04:06:58.274Z,99.38
2023-04-15T04:07:58.272Z,99.38
2023-04-15T04:08:58.300Z,99.38
2023-04-15T04:09:58.285Z,99.38
2023-04-15T04:10:58.242Z,99.38
2023-04-15T04:11:58.243Z,99.38
2023-04-15T04:12:58.209Z,99.38
2023-04-15T04:13:58.212Z,99.38
2023-04-15T04:15:05.453Z,99.38
2023-04-15T04:15:58.270Z,99.38
2023-04-15T04:16:58.228Z,99.38
2023-04-15T04:17:59.804Z,99.38
2023-04-15T04:18:58.170Z,99.38
2023-04-15T04:19:58.170Z,99.38
2023-04-15T04:20:58.137Z,99.38
2023-04-15T04:21:58.156Z,99.38
2023-04-15T04:22:58.195Z,99.38
2023-04-15T04:23:58.142Z,99.38
2023-04-15T04:24:58.097Z,99.38
2023-04-15T04:25:58.117Z,99.38
2023-04-15T04:26:58.073Z,99.28
2023-04-15T04:27:58.060Z,99.28
2023-04-15T04:28:58.066Z,99.28
2023-04-15T04:29:58.033Z,99.28
2023-04-15T04:30:58.055Z,99.18
2023-04-15T04:31:58.054Z,99.18
2023-04-15T04:32:58.053Z,99.18
2023-04-15T04:33:57.995Z,99.18
2023-04-15T04:34:58.013Z,99.18
2023-04-15T04:35:57.986Z,99.18
2023-04-15T04:36:57.989Z,99.08
2023-04-15T04:37:57.942Z,99.08
2023-04-15T04:38:57.972Z,99.08
2023-04-15T04:39:57.930Z,98.97
2023-04-15T04:40:57.949Z,98.93
2023-04-15T04:41:57.912Z,98.93
2023-04-15T04:42:57.919Z,98.93
2023-04-15T04:43:57.908Z,98.83
2023-04-15T04:44:57.888Z,98.72
2023-04-15T04:45:57.912Z,98.72
2023-04-15T04:46:57.858Z,98.72
2023-04-15T04:47:57.915Z,98.62
2023-04-15T04:48:57.856Z,98.62
2023-04-15T04:49:57.838Z,98.52
2023-04-15T04:50:57.829Z,98.52
2023-04-15T04:51:57.834Z,98.52
2023-04-15T04:52:57.825Z,98.42
2023-04-15T04:53:57.768Z,98.32
2023-04-15T04:54:57.797Z,98.32
2023-04-15T04:55:57.779Z,98.32
2023-04-15T04:56:57.766Z,98.42
2023-04-15T04:57:57.727Z,98.42
2023-04-15T04:58:57.765Z,98.32
2023-04-15T04:59:57.741Z,98.32
2023-04-15T05:00:57.756Z,98.32
2023-04-15T05:01:57.718Z,98.32
2023-04-15T05:02:57.899Z,98.42
2023-04-15T05:03:57.734Z,98.42
2023-04-15T05:04:57.671Z,98.42
2023-04-15T05:05:57.681Z,98.42
2023-04-15T05:06:57.674Z,98.42
2023-04-15T05:07:57.624Z,98.42
2023-04-15T05:08:57.657Z,98.42
2023-04-15T05:09:57.641Z,98.42
2023-04-15T05:10:57.652Z,98.42
2023-04-15T05:11:57.600Z,98.32
2023-04-15T05:12:57.607Z,98.21
2023-04-15T05:13:57.566Z,98.21
2023-04-15T05:14:57.584Z,98.21
2023-04-15T05:15:57.645Z,98.11
2023-04-15T05:16:57.543Z,98.00
2023-04-15T05:17:57.597Z,97.96
2023-04-15T05:18:57.524Z,97.91
2023-04-15T05:19:57.522Z,97.80
2023-04-15T05:20:57.530Z,97.65
2023-04-15T05:21:57.486Z,97.55
2023-04-15T05:22:57.501Z,97.60
2023-04-15T05:23:57.464Z,97.45
2023-04-15T05:24:57.591Z,97.45
2023-04-15T05:25:57.495Z,97.45
2023-04-15T05:26:57.446Z,97.34
2023-04-15T05:27:57.425Z,97.24
2023-04-15T05:28:57.454Z,97.34
2023-04-15T05:29:57.430Z,97.14
2023-04-15T05:30:57.422Z,97.14
2023-04-15T05:31:57.389Z,97.04
2023-04-15T05:32:57.393Z,96.94
2023-04-15T05:33:57.358Z,96.83
2023-04-15T05:34:57.380Z,96.73
2023-04-15T05:35:57.345Z,96.53
2023-04-15T05:36:57.334Z,96.53
2023-04-15T05:37:57.333Z,96.42
2023-04-15T05:38:57.328Z,96.42
2023-04-15T05:39:57.331Z,96.42
2023-04-15T05:40:57.308Z,96.42
2023-04-15T05:41:57.270Z,96.32
2023-04-15T05:42:57.299Z,96.17
2023-04-15T05:43:57.266Z,96.07
2023-04-15T05:44:57.280Z,96.07
2023-04-15T05:45:57.344Z,96.07
2023-04-15T05:46:57.252Z,96.07
2023-04-15T05:47:57.269Z,95.97
2023-04-15T05:48:57.226Z,95.87
2023-04-15T05:49:57.252Z,95.87
2023-04-15T05:50:57.238Z,95.87
2023-04-15T05:51:57.183Z,95.66
2023-04-15T05:52:57.202Z,95.66
2023-04-15T05:53:57.148Z,95.66
2023-04-15T05:54:57.150Z,95.56
2023-04-15T05:55:57.147Z,95.46
2023-04-15T05:56:57.203Z,95.25
2023-04-15T05:57:57.103Z,95.25
2023-04-15T05:58:57.124Z,95.25
2023-04-15T05:59:57.111Z,95.36
2023-04-15T06:00:57.087Z,95.46
2023-04-15T06:01:57.095Z,95.36
2023-04-15T06:02:57.154Z,95.36
2023-04-15T06:03:57.241Z,95.25
2023-04-15T06:04:57.110Z,95.00
2023-04-15T06:05:57.044Z,94.90
2023-04-15T06:06:57.010Z,94.80
2023-04-15T06:07:57.004Z,94.80
2023-04-15T06:08:56.994Z,94.70
2023-04-15T06:09:57.018Z,94.59
2023-04-15T06:10:56.976Z,94.59
2023-04-15T06:11:57.015Z,94.59
2023-04-15T06:12:56.966Z,94.49
2023-04-15T06:13:56.952Z,94.59
2023-04-15T06:14:58.910Z,94.49
2023-04-15T06:15:56.956Z,94.49
2023-04-15T06:16:56.927Z,94.39
2023-04-15T06:17:56.997Z,94.29
2023-04-15T06:18:56.896Z,94.29
2023-04-15T06:19:56.907Z,94.29
2023-04-15T06:20:56.883Z,94.29
2023-04-15T06:21:56.856Z,94.04
2023-04-15T06:22:56.843Z,93.93
2023-04-15T06:23:56.830Z,93.84
2023-04-15T06:24:56.866Z,93.84
2023-04-15T06:25:56.804Z,93.73
2023-04-15T06:26:56.813Z,93.73
2023-04-15T06:27:56.802Z,93.73
2023-04-15T06:28:56.799Z,93.84
2023-04-15T06:29:56.808Z,93.73
2023-04-15T06:30:56.801Z,93.52
2023-04-15T06:31:56.813Z,93.38
2023-04-15T06:32:56.796Z,93.28
2023-04-15T06:33:56.734Z,93.28
2023-04-15T06:34:56.744Z,93.07
2023-04-15T06:35:56.719Z,92.97
2023-04-15T06:36:56.728Z,92.97
2023-04-15T06:37:56.713Z,92.77
2023-04-15T06:38:56.700Z,92.56
2023-04-15T06:39:56.690Z,92.66
2023-04-15T06:40:56.673Z,92.77
2023-04-15T06:41:56.664Z,92.87
2023-04-15T06:42:56.638Z,92.87
2023-04-15T06:43:56.619Z,92.87
2023-04-15T06:44:56.626Z,92.66
2023-04-15T06:45:56.633Z,92.52
2023-04-15T06:46:56.643Z,92.21
2023-04-15T06:47:56.629Z,92.01
2023-04-15T06:48:56.576Z,91.80
2023-04-15T06:49:56.600Z,91.70
2023-04-15T06:50:56.596Z,91.39
2023-04-15T06:51:56.668Z,91.19
2023-04-15T06:52:56.545Z,91.09
2023-04-15T06:53:56.539Z,90.78
2023-04-15T06:54:56.544Z,90.64
2023-04-15T06:55:56.587Z,90.33
2023-04-15T06:56:56.498Z,90.12
2023-04-15T06:57:56.484Z,90.12
2023-04-15T06:58:56.469Z,89.92
2023-04-15T06:59:56.456Z,89.72
2023-04-15T07:00:56.444Z,89.67
2023-04-15T07:01:56.512Z,89.47
2023-04-15T07:02:56.446Z,89.26
2023-04-15T07:03:56.413Z,89.06
2023-04-15T07:04:56.466Z,89.06
2023-04-15T07:05:56.386Z,89.26
2023-04-15T07:06:56.493Z,89.17
2023-04-15T07:07:56.456Z,88.96
2023-04-15T07:08:56.354Z,89.11
2023-04-15T07:09:56.369Z,89.11
2023-04-15T07:10:56.459Z,89.31
2023-04-15T07:11:56.329Z,89.41
2023-04-15T07:12:56.358Z,89.51
2023-04-15T07:13:56.333Z,89.41
2023-04-15T07:14:56.345Z,89.51
2023-04-15T07:15:56.278Z,89.31
2023-04-15T07:16:56.330Z,89.31
2023-04-15T07:17:56.417Z,89.20
2023-04-15T07:18:56.254Z,89.41
2023-04-15T07:19:56.293Z,89.51
2023-04-15T07:20:56.246Z,89.61
2023-04-15T07:21:56.254Z,89.61
2023-04-15T07:22:56.232Z,89.72
2023-04-15T07:23:56.182Z,89.82
2023-04-15T07:24:56.225Z,89.92
2023-04-15T07:25:56.186Z,90.02
2023-04-15T07:26:56.850Z,90.02
2023-04-15T07:27:56.190Z,90.23
2023-04-15T07:28:56.151Z,90.23
2023-04-15T07:29:56.158Z,90.12
2023-04-15T07:30:56.173Z,90.12
2023-04-15T07:31:56.110Z,90.02
2023-04-15T07:32:56.134Z,89.82
2023-04-15T07:33:56.091Z,89.92
2023-04-15T07:34:56.430Z,90.02
2023-04-15T07:35:56.092Z,90.02
2023-04-15T07:36:56.065Z,89.92
2023-04-15T07:37:56.036Z,90.02
2023-04-15T07:38:56.094Z,90.23
2023-04-15T07:39:56.103Z,90.37
2023-04-15T07:40:56.038Z,90.68
2023-04-15T07:41:56.019Z,90.88
2023-04-15T07:42:56.069Z,91.09
2023-04-15T07:43:55.985Z,91.39
2023-04-15T07:44:56.010Z,91.50
2023-04-15T07:45:56.042Z,91.39
2023-04-15T07:46:55.951Z,91.50
2023-04-15T07:47:56.096Z,91.39
2023-04-15T07:48:55.935Z,91.29
2023-04-15T07:49:55.932Z,91.19
2023-04-15T07:50:55.933Z,91.39
2023-04-15T07:51:55.896Z,91.19
2023-04-15T07:52:55.931Z,91.39
2023-04-15T07:53:55.900Z,91.60
2023-04-15T07:54:55.882Z,91.70
2023-04-15T07:55:55.884Z,91.60
2023-04-15T07:56:55.874Z,91.33
2023-04-15T07:57:55.850Z,91.33
2023-04-15T07:58:55.854Z,91.44
2023-04-15T07:59:55.887Z,91.54
2023-04-15T08:00:55.820Z,91.33
2023-04-15T08:01:55.863Z,91.54
2023-04-15T08:02:55.886Z,91.64
2023-04-15T08:03:55.945Z,91.54
2023-04-15T08:04:55.807Z,91.64
2023-04-15T08:05:55.821Z,91.64
2023-04-15T08:06:55.756Z,91.64
2023-04-15T08:07:55.795Z,91.64
2023-04-15T08:08:55.730Z,91.70
2023-04-15T08:09:55.758Z,91.39
2023-04-15T08:10:55.708Z,91.39
2023-04-15T08:11:55.685Z,91.39
2023-04-15T08:12:55.738Z,91.33
2023-04-15T08:13:55.701Z,91.54
2023-04-15T08:14:55.712Z,91.85
2023-04-15T08:15:55.711Z,92.15
2023-04-15T08:16:55.646Z,92.36
2023-04-15T08:17:55.654Z,92.46
2023-04-15T08:18:55.612Z,92.36
2023-04-15T08:19:55.690Z,92.25
2023-04-15T08:20:55.607Z,91.95
2023-04-15T08:21:55.621Z,91.95
2023-04-15T08:22:55.563Z,92.05
2023-04-15T08:23:55.581Z,91.95
2023-04-15T08:24:55.659Z,91.95
2023-04-15T08:25:55.554Z,91.95
2023-04-15T08:26:55.520Z,91.85
2023-04-15T08:27:55.533Z,91.64
2023-04-15T08:28:55.497Z,91.60
2023-04-15T08:29:55.521Z,91.60
2023-04-15T08:30:55.487Z,91.70
2023-04-15T08:31:55.529Z,91.60
2023-04-15T08:32:55.475Z,91.50
2023-04-15T08:33:55.473Z,91.60
2023-04-15T08:34:55.465Z,91.70
2023-04-15T08:35:55.435Z,91.50
2023-04-15T08:36:55.435Z,91.29
2023-04-15T08:37:55.431Z,90.99
2023-04-15T08:38:55.392Z,91.19
2023-04-15T08:39:55.452Z,91.29
2023-04-15T08:40:55.406Z,91.50
2023-04-15T08:41:55.372Z,91.70
2023-04-15T08:42:55.489Z,91.70
2023-04-15T08:43:55.384Z,91.70
2023-04-15T08:44:55.410Z,92.01
2023-04-15T08:45:55.379Z,91.91
2023-04-15T08:46:55.385Z,91.80
2023-04-15T08:47:55.343Z,92.11
2023-04-15T08:48:55.373Z,92.32
2023-04-15T08:49:55.353Z,92.32
2023-04-15T08:50:55.276Z,92.42
2023-04-15T08:51:55.307Z,92.52
2023-04-15T08:52:55.293Z,92.52
2023-04-15T08:53:55.276Z,92.52
2023-04-15T08:54:55.241Z,92.32
2023-04-15T08:55:55.235Z,92.42
2023-04-15T08:56:55.251Z,92.42
2023-04-15T08:57:55.260Z,92.52
2023-04-15T08:58:55.304Z,92.32
2023-04-15T08:59:55.216Z,92.21
2023-04-15T09:00:55.285Z,92.17
2023-04-15T09:01:55.253Z,92.17
2023-04-15T09:02:55.292Z,91.86
2023-04-15T09:03:55.338Z,91.46
2023-04-15T09:04:55.186Z,91.56
2023-04-15T09:05:55.210Z,91.66
2023-04-15T09:06:55.162Z,91.56
2023-04-15T09:07:55.205Z,91.35
2023-04-15T09:08:55.208Z,91.61
2023-04-15T09:09:55.114Z,91.52
2023-04-15T09:10:55.125Z,91.20
2023-04-15T09:11:55.062Z,91.11
2023-04-15T09:12:55.053Z,91.11
2023-04-15T09:13:55.068Z,91.00
2023-04-15T09:14:55.064Z,90.90
2023-04-15T09:15:55.010Z,91.00
2023-04-15T09:16:55.100Z,91.11
2023-04-15T09:17:55.018Z,91.11
2023-04-15T09:18:55.084Z,90.70
2023-04-15T09:19:55.019Z,90.90
2023-04-15T09:20:54.979Z,90.90
2023-04-15T09:21:57.330Z,91.00
2023-04-15T09:22:54.943Z,91.11
2023-04-15T09:23:54.932Z,91.31
2023-04-15T09:24:54.934Z,91.20
2023-04-15T09:25:54.905Z,91.41
2023-04-15T09:26:54.982Z,91.52
2023-04-15T09:27:54.877Z,91.31
2023-04-15T09:28:54.916Z,91.20
2023-04-15T09:29:54.879Z,91.00
2023-04-15T09:30:54.931Z,91.11
2023-04-15T09:31:54.866Z,91.31
2023-04-15T09:32:54.834Z,91.52
2023-04-15T09:33:54.816Z,91.41
2023-04-15T09:34:54.807Z,91.25
2023-04-15T09:35:54.824Z,91.25
2023-04-15T09:36:54.801Z,91.56
2023-04-15T09:37:54.792Z,91.86
2023-04-15T09:38:54.782Z,92.07
2023-04-15T09:39:54.802Z,92.17
2023-04-15T09:40:54.758Z,92.17
2023-04-15T09:41:54.766Z,92.27
2023-04-15T09:42:54.714Z,92.47
2023-04-15T09:43:54.724Z,92.47
2023-04-15T09:44:54.751Z,92.27
2023-04-15T09:45:54.725Z,92.37
2023-04-15T09:46:54.779Z,92.17
2023-04-15T09:47:56.172Z,92.27
2023-04-15T09:48:54.655Z,92.27
2023-04-15T09:49:54.753Z,92.47
2023-04-15T09:50:54.647Z,92.68
2023-04-15T09:52:04.565Z,92.78
2023-04-15T09:52:54.620Z,93.19
2023-04-15T09:53:54.620Z,93.40
2023-04-15T09:54:54.594Z,93.50
2023-04-15T09:55:54.766Z,93.29
2023-04-15T09:56:54.563Z,93.19
2023-04-15T09:57:54.564Z,93.29
2023-04-15T09:58:54.557Z,93.40
2023-04-15T09:59:54.551Z,93.29
2023-04-15T10:00:54.572Z,93.40
2023-04-15T10:01:54.601Z,93.40
2023-04-15T10:02:54.710Z,93.29
2023-04-15T10:03:54.654Z,93.50
2023-04-15T10:04:54.497Z,93.50
2023-04-15T10:05:54.485Z,93.80
2023-04-15T10:06:54.548Z,93.85
2023-04-15T10:07:54.481Z,93.80
2023-04-15T10:08:54.519Z,93.91
2023-04-15T10:09:54.501Z,93.91
2023-04-15T10:10:54.460Z,93.80
2023-04-15T10:11:54.422Z,93.80
2023-04-15T10:12:54.405Z,93.91
2023-04-15T10:13:54.429Z,94.11
2023-04-15T10:14:54.411Z,94.01
2023-04-15T10:16:00.468Z,93.80
2023-04-15T10:16:54.356Z,93.91
2023-04-15T10:17:54.405Z,94.01
2023-04-15T10:18:54.432Z,94.01
2023-04-15T10:19:54.344Z,94.01
2023-04-15T10:20:54.307Z,93.91
2023-04-15T10:21:54.324Z,93.70
2023-04-15T10:22:54.301Z,93.80
2023-04-15T10:23:54.312Z,93.80
2023-04-15T10:24:54.267Z,93.86
2023-04-15T10:25:54.286Z,93.86
2023-04-15T10:26:54.258Z,93.76
2023-04-15T10:27:54.311Z,93.66
2023-04-15T10:28:54.228Z,93.66
2023-04-15T10:29:54.225Z,93.45
2023-04-15T10:30:54.240Z,92.94
2023-04-15T10:31:54.210Z,92.74
2023-04-15T10:32:54.267Z,93.05
2023-04-15T10:33:54.196Z,93.25
2023-04-15T10:34:54.698Z,93.55
2023-04-15T10:35:54.163Z,93.51
2023-04-15T10:36:54.157Z,93.21
2023-04-15T10:37:54.133Z,93.31
2023-04-15T10:38:54.126Z,93.31
2023-04-15T10:39:54.167Z,93.41
2023-04-15T10:40:54.109Z,93.41
2023-04-15T10:41:54.109Z,93.51
2023-04-15T10:42:54.095Z,93.51
2023-04-15T10:43:54.095Z,93.10
2023-04-15T10:44:54.058Z,92.90
2023-04-15T10:45:54.087Z,92.65
2023-04-15T10:46:54.126Z,92.96
2023-04-15T10:47:54.114Z,92.76
2023-04-15T10:48:54.053Z,92.39
2023-04-15T10:49:54.073Z,92.90
2023-04-15T10:50:53.992Z,93.21
2023-04-15T10:51:54.041Z,93.41
2023-04-15T10:52:54.212Z,93.41
2023-04-15T10:53:53.977Z,93.71
2023-04-15T10:54:54.018Z,94.12
2023-04-15T10:55:53.952Z,94.23
2023-04-15T10:56:53.925Z,94.33
2023-04-15T10:57:54.048Z,94.53
2023-04-15T10:58:53.968Z,94.53
2023-04-15T10:59:53.947Z,94.74
2023-04-15T11:00:53.914Z,94.48
2023-04-15T11:01:53.974Z,94.17
2023-04-15T11:02:54.032Z,94.07
2023-04-15T11:03:54.035Z,94.27
2023-04-15T11:04:54.069Z,94.48
2023-04-15T11:05:53.843Z,94.48
2023-04-15T11:06:53.820Z,94.58
2023-04-15T11:07:53.846Z,94.78
2023-04-15T11:08:53.807Z,94.89
2023-04-15T11:09:53.807Z,94.89
2023-04-15T11:10:53.779Z,95.09
2023-04-15T11:11:53.802Z,95.09
2023-04-15T11:12:53.828Z,95.09
2023-04-15T11:13:53.758Z,95.29
2023-04-15T11:14:53.745Z,94.98
2023-04-15T11:15:53.724Z,94.68
2023-04-15T11:16:53.723Z,94.68
2023-04-15T11:17:53.780Z,94.78
2023-04-15T11:18:53.705Z,94.78
2023-04-15T11:19:53.736Z,94.82
2023-04-15T11:20:53.680Z,94.93
2023-04-15T11:21:53.662Z,94.93
2023-04-15T11:23:14.110Z,95.03
2023-04-15T11:23:53.643Z,94.98
2023-04-15T11:24:53.643Z,95.13
2023-04-15T11:25:53.635Z,95.13
2023-04-15T11:26:53.602Z,94.98
2023-04-15T11:27:53.605Z,94.98
2023-04-15T11:28:53.582Z,94.78
2023-04-15T11:29:53.627Z,94.89
2023-04-15T11:30:53.563Z,94.98
2023-04-15T11:31:53.611Z,94.98
2023-04-15T11:32:53.596Z,94.68
2023-04-15T11:33:53.534Z,94.78
2023-04-15T11:34:53.512Z,94.98
2023-04-15T11:35:53.521Z,94.98
2023-04-15T11:36:53.520Z,94.89
2023-04-15T11:37:53.500Z,94.98
2023-04-15T11:38:53.526Z,95.09
2023-04-15T11:39:53.488Z,95.19
2023-04-15T11:40:53.466Z,95.19
2023-04-15T11:41:53.475Z,95.19
2023-04-15T11:42:53.435Z,95.19
2023-04-15T11:43:53.432Z,95.19
2023-04-15T11:44:53.417Z,95.09
2023-04-15T11:45:53.522Z,95.19
2023-04-15T11:46:53.412Z,95.29
2023-04-15T11:47:53.449Z,95.50
2023-04-15T11:48:53.372Z,95.50
2023-04-15T11:49:53.359Z,95.39
2023-04-15T11:50:53.359Z,95.29
2023-04-15T11:51:53.357Z,95.09
2023-04-15T11:52:53.355Z,95.09
2023-04-15T11:53:53.338Z,95.29
2023-04-15T11:54:53.324Z,95.50
2023-04-15T11:55:53.335Z,95.50
2023-04-15T11:56:53.297Z,95.50
2023-04-15T11:57:53.293Z,95.50
2023-04-15T11:58:53.264Z,95.60
2023-04-15T11:59:53.259Z,95.80
2023-04-15T12:00:53.268Z,95.80
2023-04-15T12:01:53.281Z,95.70
2023-04-15T12:02:53.332Z,95.70
2023-04-15T12:03:53.316Z,95.60
2023-04-15T12:04:53.270Z,95.60
2023-04-15T12:05:53.206Z,95.60
2023-04-15T12:06:53.266Z,95.60
2023-04-15T12:07:53.181Z,95.50
2023-04-15T12:08:53.174Z,95.60
2023-04-15T12:09:53.158Z,95.70
2023-04-15T12:10:53.182Z,95.56
2023-04-15T12:11:53.145Z,95.65
2023-04-15T12:12:53.122Z,95.65
2023-04-15T12:13:53.109Z,95.56
2023-04-15T12:14:53.091Z,95.56
2023-04-15T12:15:53.144Z,95.56
2023-04-15T12:16:53.100Z,95.45
2023-04-15T12:17:53.068Z,95.15
2023-04-15T12:18:53.047Z,94.90
2023-04-15T12:19:53.041Z,94.79
2023-04-15T12:20:53.057Z,94.79
2023-04-15T12:21:53.055Z,94.70
2023-04-15T12:22:53.003Z,94.70
2023-04-15T12:23:53.052Z,94.49
2023-04-15T12:24:53.012Z,94.49
2023-04-15T12:25:53.036Z,94.29
2023-04-15T12:26:53.026Z,94.24
2023-04-15T12:27:52.964Z,94.04
2023-04-15T12:28:52.954Z,94.24
2023-04-15T12:29:52.939Z,93.93
2023-04-15T12:30:53.068Z,93.84
2023-04-15T12:31:52.926Z,93.63
2023-04-15T12:32:52.935Z,93.22
2023-04-15T12:33:52.915Z,93.12
2023-04-15T12:34:52.901Z,93.22
2023-04-15T12:35:52.978Z,93.32
2023-04-15T12:36:52.943Z,93.43
2023-04-15T12:37:52.936Z,93.52
2023-04-15T12:38:52.852Z,93.32
2023-04-15T12:39:52.827Z,93.43
2023-04-15T12:40:52.839Z,93.63
2023-04-15T12:41:52.844Z,93.73
2023-04-15T12:42:52.805Z,93.73
2023-04-15T12:43:52.790Z,93.73
2023-04-15T12:44:52.798Z,93.84
2023-04-15T12:45:52.880Z,93.73
2023-04-15T12:46:53.181Z,93.52
2023-04-15T12:47:52.840Z,93.43
2023-04-15T12:48:52.830Z,93.43
2023-04-15T12:49:52.768Z,93.32
2023-04-15T12:50:52.740Z,93.32
2023-04-15T12:51:52.733Z,93.43